Terminal Aerodrome Forecast
Issued by NWS Cleveland, OH

Home | Current Version | Previous Version | Text Only | Print | Product List | Glossary Off
Versions: 1 2 3 4 5 6 7 8 9 10 11 12 13 14 15

713
FTUS41 KCLE 191120
TAFMFD
TAF
KMFD 191120Z 1912/2012 30010KT 3SM TSRA BR OVC035CB
     FM191300 23004KT P6SM BKN035 BKN120
     FM191600 26008KT P6SM VCTS BKN035CB BKN120
     FM192100 30010KT P6SM BKN045 BKN100
     FM200000 VRB03KT P6SM FEW200
     FM200800 00000KT 4SM BR FEW200=

USA.gov is the U.S. government's official web portal to all federal, state and local government web resources and services.